AZU6285 SBEG-SWPI
Flight info
| Callsign | AZU6285 |
|---|---|
| Flight time | N/A |
| Altitude | 17000 |
| Route | ERVEL |
| Aircraft | AT76/M-SDFGIRY/S |
Departure
| Time | 2026-04-21 15:21 |
|---|---|
| Airport | Eduardo Gomes International Airport (SBEG) |
Arrival
| Time | N/A |
|---|---|
| Airport | Parintins Airport (SWPI) |
| Time | Latitude | Longitude | Altitude | Speed | Heading |
|---|---|---|---|---|---|
| 2026-04-21 14:34 | -3.03152 | -60.04092 | 265 ft | 0 kts | 345° |
| 2026-04-21 15:05 | -3.03156 | -60.04091 | 265 ft | 2 kts | 345° |
| 2026-04-21 15:05 | -3.03193 | -60.04080 | 265 ft | 2 kts | 345° |
| 2026-04-21 15:05 | -3.03210 | -60.04075 | 269 ft | 3 kts | 321° |
| 2026-04-21 15:06 | -3.03221 | -60.04061 | 265 ft | 3 kts | 281° |
| 2026-04-21 15:06 | -3.03222 | -60.04043 | 265 ft | 2 kts | 256° |
| 2026-04-21 15:06 | -3.03220 | -60.04036 | 265 ft | 1 kts | 254° |
| 2026-04-21 15:06 | -3.03220 | -60.04035 | 265 ft | 0 kts | 254° |
| 2026-04-21 15:11 | -3.03220 | -60.04038 | 265 ft | 2 kts | 254° |
| 2026-04-21 15:11 | -3.03228 | -60.04067 | 265 ft | 7 kts | 255° |
| 2026-04-21 15:11 | -3.03241 | -60.04117 | 265 ft | 9 kts | 255° |
| 2026-04-21 15:12 | -3.03259 | -60.04182 | 265 ft | 11 kts | 255° |
| 2026-04-21 15:12 | -3.03279 | -60.04258 | 265 ft | 12 kts | 256° |
| 2026-04-21 15:12 | -3.03302 | -60.04342 | 265 ft | 13 kts | 250° |
| 2026-04-21 15:12 | -3.03331 | -60.04429 | 265 ft | 13 kts | 257° |
| 2026-04-21 15:13 | -3.03351 | -60.04521 | 265 ft | 14 kts | 260° |
| 2026-04-21 15:13 | -3.03356 | -60.04614 | 265 ft | 13 kts | 271° |
| 2026-04-21 15:13 | -3.03354 | -60.04705 | 265 ft | 13 kts | 263° |
| 2026-04-21 15:13 | -3.03384 | -60.04791 | 265 ft | 14 kts | 240° |
| 2026-04-21 15:14 | -3.03451 | -60.04862 | 265 ft | 15 kts | 218° |
| 2026-04-21 15:14 | -3.03533 | -60.04932 | 265 ft | 16 kts | 230° |
| 2026-04-21 15:14 | -3.03587 | -60.05027 | 265 ft | 16 kts | 251° |
| 2026-04-21 15:14 | -3.03614 | -60.05130 | 265 ft | 15 kts | 256° |
| 2026-04-21 15:15 | -3.03640 | -60.05229 | 265 ft | 15 kts | 255° |
| 2026-04-21 15:15 | -3.03666 | -60.05327 | 265 ft | 14 kts | 256° |
| 2026-04-21 15:15 | -3.03684 | -60.05425 | 265 ft | 14 kts | 262° |
| 2026-04-21 15:15 | -3.03691 | -60.05523 | 265 ft | 14 kts | 268° |
| 2026-04-21 15:16 | -3.03691 | -60.05617 | 265 ft | 13 kts | 269° |
| 2026-04-21 15:16 | -3.03691 | -60.05709 | 265 ft | 13 kts | 270° |
| 2026-04-21 15:16 | -3.03691 | -60.05798 | 265 ft | 13 kts | 270° |
| 2026-04-21 15:16 | -3.03691 | -60.05888 | 265 ft | 13 kts | 270° |
| 2026-04-21 15:17 | -3.03690 | -60.05978 | 265 ft | 13 kts | 270° |
| 2026-04-21 15:17 | -3.03689 | -60.06068 | 264 ft | 13 kts | 271° |
| 2026-04-21 15:17 | -3.03716 | -60.06148 | 265 ft | 13 kts | 226° |
| 2026-04-21 15:17 | -3.03774 | -60.06173 | 265 ft | 0 kts | 184° |
| 2026-04-21 15:19 | -3.03812 | -60.06171 | 265 ft | 12 kts | 169° |
| 2026-04-21 15:19 | -3.03872 | -60.06130 | 266 ft | 2 kts | 78° |
| 2026-04-21 15:20 | -3.03858 | -60.06072 | 266 ft | 14 kts | 91° |
| 2026-04-21 15:20 | -3.03859 | -60.05777 | 265 ft | 73 kts | 90° |
| 2026-04-21 15:20 | -3.03857 | -60.05088 | 267 ft | 123 kts | 90° |
| 2026-04-21 15:20 | -3.03877 | -60.04192 | 624 ft | 131 kts | 90° |
| 2026-04-21 15:21 | -3.03868 | -60.03277 | 1166 ft | 132 kts | 89° |
| 2026-04-21 15:21 | -3.03828 | -60.02339 | 1664 ft | 136 kts | 86° |
| 2026-04-21 15:21 | -3.03486 | -60.01504 | 2181 ft | 135 kts | 35° |
| 2026-04-21 15:21 | -3.02684 | -60.01063 | 2681 ft | 130 kts | 50° |
| 2026-04-21 15:22 | -3.02547 | -60.00223 | 3150 ft | 128 kts | 108° |
| 2026-04-21 15:22 | -3.02813 | -59.99371 | 3612 ft | 128 kts | 107° |
| 2026-04-21 15:22 | -3.03076 | -59.98519 | 4052 ft | 129 kts | 107° |
| 2026-04-21 15:22 | -3.03333 | -59.97589 | 4101 ft | 150 kts | 104° |
| 2026-04-21 15:23 | -3.03508 | -59.96881 | 4106 ft | 166 kts | 103° |
| 2026-04-21 15:23 | -3.03782 | -59.95282 | 4253 ft | 181 kts | 97° |
| 2026-04-21 15:23 | -3.03908 | -59.94021 | 4541 ft | 182 kts | 95° |
| 2026-04-21 15:23 | -3.03992 | -59.92751 | 4829 ft | 184 kts | 94° |
| 2026-04-21 15:24 | -3.04073 | -59.91465 | 5139 ft | 185 kts | 94° |
| 2026-04-21 15:24 | -3.04155 | -59.90180 | 5456 ft | 185 kts | 94° |
| 2026-04-21 15:24 | -3.04239 | -59.88892 | 5762 ft | 186 kts | 95° |
| 2026-04-21 15:24 | -3.04296 | -59.88035 | 5954 ft | 186 kts | 95° |
| 2026-04-21 15:25 | -3.04412 | -59.86296 | 6344 ft | 187 kts | 95° |
| 2026-04-21 15:25 | -3.04499 | -59.84994 | 6628 ft | 188 kts | 95° |
| 2026-04-21 15:25 | -3.04557 | -59.84129 | 6809 ft | 188 kts | 95° |
| 2026-04-21 15:25 | -3.04672 | -59.82387 | 7161 ft | 190 kts | 95° |
| 2026-04-21 15:26 | -3.04729 | -59.81492 | 7337 ft | 191 kts | 95° |
| 2026-04-21 15:26 | -3.04817 | -59.80177 | 7584 ft | 192 kts | 95° |
| 2026-04-21 15:26 | -3.04908 | -59.78838 | 7843 ft | 193 kts | 95° |
| 2026-04-21 15:26 | -3.04999 | -59.77493 | 8104 ft | 194 kts | 95° |
| 2026-04-21 15:27 | -3.05090 | -59.76145 | 8360 ft | 194 kts | 95° |
| 2026-04-21 15:27 | -3.05179 | -59.74792 | 8611 ft | 195 kts | 95° |
| 2026-04-21 15:27 | -3.05271 | -59.73428 | 8858 ft | 196 kts | 95° |
| 2026-04-21 15:27 | -3.05363 | -59.72062 | 9100 ft | 197 kts | 96° |
| 2026-04-21 15:28 | -3.05454 | -59.70703 | 9348 ft | 198 kts | 96° |
| 2026-04-21 15:28 | -3.05545 | -59.69323 | 9587 ft | 199 kts | 96° |
| 2026-04-21 15:28 | -3.05637 | -59.67932 | 9830 ft | 200 kts | 96° |
| 2026-04-21 15:28 | -3.05730 | -59.66542 | 10048 ft | 201 kts | 96° |
| 2026-04-21 15:29 | -3.05824 | -59.65144 | 10257 ft | 201 kts | 96° |
| 2026-04-21 15:29 | -3.05917 | -59.63740 | 10468 ft | 202 kts | 95° |
| 2026-04-21 15:29 | -3.06011 | -59.62335 | 10681 ft | 203 kts | 96° |
| 2026-04-21 15:29 | -3.06104 | -59.60923 | 10882 ft | 204 kts | 96° |
| 2026-04-21 15:30 | -3.06197 | -59.59523 | 11090 ft | 204 kts | 95° |
| 2026-04-21 15:30 | -3.06289 | -59.58103 | 11300 ft | 205 kts | 95° |
| 2026-04-21 15:30 | -3.06384 | -59.56679 | 11516 ft | 205 kts | 96° |
| 2026-04-21 15:30 | -3.06478 | -59.55251 | 11727 ft | 206 kts | 95° |
| 2026-04-21 15:31 | -3.06574 | -59.53819 | 11933 ft | 206 kts | 96° |
| 2026-04-21 15:31 | -3.06670 | -59.52382 | 12139 ft | 207 kts | 95° |
| 2026-04-21 15:31 | -3.06764 | -59.50945 | 12338 ft | 208 kts | 95° |
| 2026-04-21 15:31 | -3.06861 | -59.49500 | 12531 ft | 208 kts | 95° |
| 2026-04-21 15:32 | -3.06959 | -59.48049 | 12721 ft | 209 kts | 95° |
| 2026-04-21 15:32 | -3.07054 | -59.46594 | 12911 ft | 209 kts | 95° |
| 2026-04-21 15:32 | -3.07140 | -59.45138 | 13106 ft | 210 kts | 95° |
| 2026-04-21 15:32 | -3.07210 | -59.43694 | 13305 ft | 211 kts | 94° |
| 2026-04-21 15:33 | -3.07283 | -59.42227 | 13498 ft | 211 kts | 94° |
| 2026-04-21 15:33 | -3.07357 | -59.40758 | 13683 ft | 212 kts | 94° |
| 2026-04-21 15:33 | -3.07431 | -59.39282 | 13867 ft | 212 kts | 94° |
| 2026-04-21 15:33 | -3.07504 | -59.37808 | 14025 ft | 212 kts | 94° |
| 2026-04-21 15:34 | -3.07578 | -59.36332 | 14178 ft | 213 kts | 94° |
| 2026-04-21 15:34 | -3.07652 | -59.34851 | 14328 ft | 213 kts | 94° |
| 2026-04-21 15:34 | -3.07728 | -59.33366 | 14467 ft | 214 kts | 94° |
| 2026-04-21 15:34 | -3.07800 | -59.31894 | 14613 ft | 214 kts | 94° |
| 2026-04-21 15:35 | -3.07875 | -59.30402 | 14766 ft | 215 kts | 94° |
| 2026-04-21 15:35 | -3.07950 | -59.28902 | 14892 ft | 216 kts | 94° |
| 2026-04-21 15:35 | -3.08026 | -59.27400 | 15032 ft | 216 kts | 94° |
| 2026-04-21 15:35 | -3.08099 | -59.25896 | 15187 ft | 216 kts | 94° |
| 2026-04-21 15:36 | -3.08175 | -59.24386 | 15340 ft | 217 kts | 94° |
| 2026-04-21 15:36 | -3.08251 | -59.22874 | 15497 ft | 217 kts | 94° |
| 2026-04-21 15:36 | -3.08327 | -59.21360 | 15644 ft | 218 kts | 94° |
| 2026-04-21 15:36 | -3.08403 | -59.19842 | 15792 ft | 218 kts | 94° |
| 2026-04-21 15:37 | -3.08477 | -59.18341 | 15932 ft | 219 kts | 94° |
| 2026-04-21 15:37 | -3.08554 | -59.16819 | 16084 ft | 219 kts | 94° |
| 2026-04-21 15:37 | -3.08629 | -59.15292 | 16214 ft | 220 kts | 94° |
| 2026-04-21 15:37 | -3.08706 | -59.13758 | 16343 ft | 220 kts | 93° |
| 2026-04-21 15:38 | -3.08782 | -59.12227 | 16471 ft | 221 kts | 93° |
| 2026-04-21 15:38 | -3.08859 | -59.10691 | 16593 ft | 221 kts | 93° |
| 2026-04-21 15:38 | -3.08936 | -59.09151 | 16719 ft | 221 kts | 93° |
| 2026-04-21 15:38 | -3.09013 | -59.07615 | 16858 ft | 221 kts | 93° |
| 2026-04-21 15:39 | -3.09090 | -59.06074 | 16926 ft | 223 kts | 93° |
| 2026-04-21 15:39 | -3.09166 | -59.04527 | 16959 ft | 227 kts | 93° |
| 2026-04-21 15:39 | -3.09245 | -59.02936 | 16974 ft | 231 kts | 93° |
| 2026-04-21 15:39 | -3.09325 | -59.01318 | 16984 ft | 234 kts | 93° |
| 2026-04-21 15:40 | -3.09406 | -58.99679 | 16987 ft | 237 kts | 93° |
| 2026-04-21 15:40 | -3.09489 | -58.98021 | 16986 ft | 240 kts | 92° |
| 2026-04-21 15:40 | -3.09573 | -58.96340 | 16984 ft | 243 kts | 92° |
| 2026-04-21 15:40 | -3.09657 | -58.94646 | 16989 ft | 245 kts | 93° |
| 2026-04-21 15:41 | -3.09742 | -58.92939 | 16984 ft | 246 kts | 92° |
| 2026-04-21 15:41 | -3.09828 | -58.91220 | 16982 ft | 247 kts | 92° |
| 2026-04-21 15:41 | -3.09913 | -58.89493 | 16987 ft | 249 kts | 92° |
| 2026-04-21 15:41 | -3.09998 | -58.87786 | 16990 ft | 250 kts | 92° |
| 2026-04-21 15:42 | -3.10085 | -58.86050 | 16988 ft | 250 kts | 92° |
| 2026-04-21 15:42 | -3.10171 | -58.84313 | 16989 ft | 250 kts | 92° |
| 2026-04-21 15:42 | -3.10257 | -58.82574 | 16989 ft | 250 kts | 92° |
| 2026-04-21 15:42 | -3.10340 | -58.80836 | 16988 ft | 250 kts | 92° |
| 2026-04-21 15:43 | -3.10428 | -58.79100 | 16990 ft | 250 kts | 92° |
| 2026-04-21 15:43 | -3.10515 | -58.77357 | 16987 ft | 250 kts | 92° |
| 2026-04-21 15:43 | -3.10601 | -58.75614 | 16987 ft | 250 kts | 92° |
| 2026-04-21 15:43 | -3.10685 | -58.73873 | 16986 ft | 250 kts | 92° |
| 2026-04-21 15:44 | -3.10773 | -58.72133 | 16991 ft | 251 kts | 92° |
| 2026-04-21 15:44 | -3.10859 | -58.70386 | 16987 ft | 251 kts | 92° |
| 2026-04-21 15:44 | -3.10945 | -58.68640 | 16987 ft | 251 kts | 92° |
| 2026-04-21 15:44 | -3.11031 | -58.66915 | 16986 ft | 251 kts | 92° |
| 2026-04-21 15:45 | -3.11117 | -58.65169 | 16987 ft | 251 kts | 92° |
| 2026-04-21 15:45 | -3.11202 | -58.63420 | 16985 ft | 251 kts | 92° |
| 2026-04-21 15:45 | -3.11289 | -58.61672 | 16984 ft | 251 kts | 92° |
| 2026-04-21 15:45 | -3.11376 | -58.59923 | 16986 ft | 252 kts | 92° |
| 2026-04-21 15:46 | -3.11461 | -58.58167 | 16990 ft | 253 kts | 92° |
| 2026-04-21 15:46 | -3.11548 | -58.56406 | 16985 ft | 253 kts | 92° |
| 2026-04-21 15:46 | -3.11636 | -58.54667 | 16984 ft | 253 kts | 92° |
| 2026-04-21 15:46 | -3.11723 | -58.52907 | 16985 ft | 253 kts | 92° |
| 2026-04-21 15:47 | -3.11808 | -58.51145 | 16990 ft | 253 kts | 92° |
| 2026-04-21 15:47 | -3.11895 | -58.49388 | 16991 ft | 253 kts | 92° |
| 2026-04-21 15:47 | -3.11959 | -58.47629 | 16987 ft | 252 kts | 85° |
| 2026-04-21 15:47 | -3.11651 | -58.45916 | 16979 ft | 250 kts | 75° |
| 2026-04-21 15:48 | -3.11212 | -58.44226 | 16987 ft | 250 kts | 74° |
| 2026-04-21 15:48 | -3.10778 | -58.42536 | 16987 ft | 251 kts | 75° |
| 2026-04-21 15:48 | -3.10398 | -58.40849 | 16984 ft | 251 kts | 77° |
| 2026-04-21 15:48 | -3.10051 | -58.39133 | 16993 ft | 251 kts | 78° |
| 2026-04-21 15:49 | -3.09706 | -58.37419 | 16987 ft | 252 kts | 77° |
| 2026-04-21 15:49 | -3.09472 | -58.36281 | 16992 ft | 252 kts | 77° |